sensor_id;sensor_type;location;lat;lon;timestamp;pressure;altitude;pressure_sealevel;temperature;humidity
10310;BME280;5200;43.236;27.986;2023-11-21T00:01:26;99728.38;;;9.41;100.00
10310;BME280;5200;43.236;27.986;2023-11-21T00:03:53;99700.16;;;9.24;100.00
10310;BME280;5200;43.236;27.986;2023-11-21T00:06:20;99738.34;;;9.57;100.00
10310;BME280;5200;43.236;27.986;2023-11-21T00:08:47;99726.44;;;9.53;100.00
10310;BME280;5200;43.236;27.986;2023-11-21T00:11:14;99706.53;;;9.41;100.00
10310;BME280;5200;43.236;27.986;2023-11-21T00:13:42;99753.53;;;9.73;100.00
10310;BME280;5200;43.236;27.986;2023-11-21T00:16:09;99761.28;;;9.74;100.00
10310;BME280;5200;43.236;27.986;2023-11-21T00:18:36;99753.13;;;9.78;100.00
10310;BME280;5200;43.236;27.986;2023-11-21T00:21:03;99764.31;;;9.80;100.00
10310;BME280;5200;43.236;27.986;2023-11-21T00:23:29;99719.50;;;9.62;100.00
10310;BME280;5200;43.236;27.986;2023-11-21T00:25:56;99740.81;;;9.68;100.00
10310;BME280;5200;43.236;27.986;2023-11-21T00:28:24;99713.56;;;9.50;100.00
10310;BME280;5200;43.236;27.986;2023-11-21T00:30:52;99746.34;;;9.65;100.00
10310;BME280;5200;43.236;27.986;2023-11-21T00:33:19;99744.97;;;9.51;100.00
10310;BME280;5200;43.236;27.986;2023-11-21T00:35:46;99704.16;;;9.28;100.00
10310;BME280;5200;43.236;27.986;2023-11-21T00:38:13;99749.91;;;9.45;100.00
10310;BME280;5200;43.236;27.986;2023-11-21T00:40:39;99748.81;;;9.38;100.00
10310;BME280;5200;43.236;27.986;2023-11-21T00:43:06;99752.69;;;9.34;100.00
10310;BME280;5200;43.236;27.986;2023-11-21T00:45:33;99765.38;;;9.28;100.00
10310;BME280;5200;43.236;27.986;2023-11-21T00:48:03;99750.19;;;9.22;100.00
10310;BME280;5200;43.236;27.986;2023-11-21T00:50:30;99728.56;;;8.99;100.00
10310;BME280;5200;43.236;27.986;2023-11-21T00:52:57;99763.81;;;9.06;100.00
10310;BME280;5200;43.236;27.986;2023-11-21T00:55:24;99745.00;;;8.92;100.00
10310;BME280;5200;43.236;27.986;2023-11-21T00:57:51;99765.84;;;8.93;100.00
10310;BME280;5200;43.236;27.986;2023-11-21T01:00:18;99749.78;;;8.86;100.00
10310;BME280;5200;43.236;27.986;2023-11-21T01:02:45;99728.19;;;8.63;100.00
10310;BME280;5200;43.236;27.986;2023-11-21T01:05:14;99742.56;;;8.69;100.00
10310;BME280;5200;43.236;27.986;2023-11-21T01:07:41;99711.00;;;8.50;100.00
10310;BME280;5200;43.236;27.986;2023-11-21T01:10:09;99694.34;;;8.39;100.00
10310;BME280;5200;43.236;27.986;2023-11-21T01:12:36;99708.78;;;8.45;100.00
10310;BME280;5200;43.236;27.986;2023-11-21T01:15:05;99742.13;;;8.64;100.00
10310;BME280;5200;43.236;27.986;2023-11-21T01:17:33;99709.16;;;8.40;100.00
10310;BME280;5200;43.236;27.986;2023-11-21T01:20:00;99741.41;;;8.62;100.00
10310;BME280;5200;43.236;27.986;2023-11-21T01:22:29;99759.91;;;8.60;100.00
10310;BME280;5200;43.236;27.986;2023-11-21T01:24:56;99696.81;;;8.31;100.00
10310;BME280;5200;43.236;27.986;2023-11-21T01:27:23;99734.22;;;8.54;100.00
10310;BME280;5200;43.236;27.986;2023-11-21T01:29:50;99747.50;;;8.62;100.00
10310;BME280;5200;43.236;27.986;2023-11-21T01:32:18;99739.31;;;8.56;100.00
10310;BME280;5200;43.236;27.986;2023-11-21T01:34:45;99703.19;;;8.38;100.00
10310;BME280;5200;43.236;27.986;2023-11-21T01:37:12;99697.94;;;8.38;100.00
10310;BME280;5200;43.236;27.986;2023-11-21T01:39:40;99737.72;;;8.74;100.00
10310;BME280;5200;43.236;27.986;2023-11-21T01:42:07;99739.41;;;8.75;100.00
10310;BME280;5200;43.236;27.986;2023-11-21T01:44:34;99734.41;;;8.72;100.00
10310;BME280;5200;43.236;27.986;2023-11-21T01:47:01;99731.28;;;8.78;100.00
10310;BME280;5200;43.236;27.986;2023-11-21T01:49:31;99743.28;;;8.81;100.00
10310;BME280;5200;43.236;27.986;2023-11-21T01:51:59;99703.31;;;8.58;100.00
10310;BME280;5200;43.236;27.986;2023-11-21T01:54:26;99700.88;;;8.66;100.00
10310;BME280;5200;43.236;27.986;2023-11-21T01:56:58;99726.03;;;8.88;100.00
10310;BME280;5200;43.236;27.986;2023-11-21T01:59:29;99727.84;;;8.87;100.00
10310;BME280;5200;43.236;27.986;2023-11-21T02:02:00;99720.25;;;8.84;100.00
10310;BME280;5200;43.236;27.986;2023-11-21T02:04:27;99703.47;;;8.66;100.00
10310;BME280;5200;43.236;27.986;2023-11-21T02:06:54;99681.47;;;8.48;100.00
10310;BME280;5200;43.236;27.986;2023-11-21T02:09:25;99699.03;;;8.57;100.00
10310;BME280;5200;43.236;27.986;2023-11-21T02:11:52;99714.63;;;8.58;100.00
10310;BME280;5200;43.236;27.986;2023-11-21T02:14:20;99711.25;;;8.46;100.00
10310;BME280;5200;43.236;27.986;2023-11-21T02:16:48;99711.25;;;8.46;100.00
10310;BME280;5200;43.236;27.986;2023-11-21T02:19:18;99700.41;;;8.30;100.00
10310;BME280;5200;43.236;27.986;2023-11-21T02:21:49;99675.75;;;8.12;100.00
10310;BME280;5200;43.236;27.986;2023-11-21T02:24:19;99703.66;;;8.22;100.00
10310;BME280;5200;43.236;27.986;2023-11-21T02:26:46;99702.41;;;8.17;100.00
10310;BME280;5200;43.236;27.986;2023-11-21T02:29:13;99722.59;;;8.26;100.00
10310;BME280;5200;43.236;27.986;2023-11-21T02:31:43;99689.03;;;7.99;100.00
10310;BME280;5200;43.236;27.986;2023-11-21T02:34:13;99698.25;;;7.93;100.00
10310;BME280;5200;43.236;27.986;2023-11-21T02:36:40;99726.63;;;8.09;100.00
10310;BME280;5200;43.236;27.986;2023-11-21T02:39:08;99722.59;;;8.05;100.00
10310;BME280;5200;43.236;27.986;2023-11-21T02:41:36;99737.56;;;8.14;100.00
10310;BME280;5200;43.236;27.986;2023-11-21T02:44:04;99734.78;;;8.16;100.00
10310;BME280;5200;43.236;27.986;2023-11-21T02:46:32;99736.72;;;8.14;100.00
10310;BME280;5200;43.236;27.986;2023-11-21T02:49:00;99741.50;;;8.09;100.00
10310;BME280;5200;43.236;27.986;2023-11-21T02:51:28;99696.41;;;7.84;100.00
10310;BME280;5200;43.236;27.986;2023-11-21T02:53:55;99750.91;;;8.11;100.00
10310;BME280;5200;43.236;27.986;2023-11-21T02:56:24;99745.81;;;8.10;100.00
10310;BME280;5200;43.236;27.986;2023-11-21T02:58:55;99756.53;;;8.07;100.00
10310;BME280;5200;43.236;27.986;2023-11-21T03:01:22;99704.75;;;7.78;100.00
10310;BME280;5200;43.236;27.986;2023-11-21T03:03:50;99742.97;;;8.01;100.00
10310;BME280;5200;43.236;27.986;2023-11-21T03:06:17;99723.09;;;7.78;100.00
10310;BME280;5200;43.236;27.986;2023-11-21T03:08:45;99761.69;;;7.97;100.00
10310;BME280;5200;43.236;27.986;2023-11-21T03:11:12;99751.28;;;7.86;100.00
10310;BME280;5200;43.236;27.986;2023-11-21T03:13:39;99743.09;;;7.79;100.00
10310;BME280;5200;43.236;27.986;2023-11-21T03:16:08;99764.13;;;7.89;100.00
10310;BME280;5200;43.236;27.986;2023-11-21T03:18:35;99723.41;;;7.63;100.00
10310;BME280;5200;43.236;27.986;2023-11-21T03:21:03;99768.53;;;7.88;100.00
10310;BME280;5200;43.236;27.986;2023-11-21T03:23:30;99773.53;;;7.91;100.00
10310;BME280;5200;43.236;27.986;2023-11-21T03:25:56;99771.00;;;7.90;100.00
10310;BME280;5200;43.236;27.986;2023-11-21T03:28:24;99750.03;;;7.69;100.00
10310;BME280;5200;43.236;27.986;2023-11-21T03:30:52;99777.34;;;7.87;100.00
10310;BME280;5200;43.236;27.986;2023-11-21T03:33:20;99784.25;;;7.88;100.00
10310;BME280;5200;43.236;27.986;2023-11-21T03:35:47;99774.28;;;7.82;100.00
10310;BME280;5200;43.236;27.986;2023-11-21T03:38:14;99742.69;;;7.62;100.00
10310;BME280;5200;43.236;27.986;2023-11-21T03:40:41;99744.88;;;7.57;100.00
10310;BME280;5200;43.236;27.986;2023-11-21T03:43:08;99768.00;;;7.73;100.00
10310;BME280;5200;43.236;27.986;2023-11-21T03:45:35;99736.75;;;7.60;100.00
10310;BME280;5200;43.236;27.986;2023-11-21T03:48:02;99770.13;;;7.79;100.00
10310;BME280;5200;43.236;27.986;2023-11-21T03:50:30;99745.53;;;7.59;100.00
10310;BME280;5200;43.236;27.986;2023-11-21T03:52:57;99758.97;;;7.66;100.00
10310;BME280;5200;43.236;27.986;2023-11-21T03:55:24;99766.22;;;7.74;100.00
10310;BME280;5200;43.236;27.986;2023-11-21T03:57:51;99731.56;;;7.49;100.00
10310;BME280;5200;43.236;27.986;2023-11-21T04:00:21;99765.50;;;7.72;100.00
10310;BME280;5200;43.236;27.986;2023-11-21T04:02:47;99768.69;;;7.75;100.00
10310;BME280;5200;43.236;27.986;2023-11-21T04:05:16;99748.13;;;7.71;100.00
10310;BME280;5200;43.236;27.986;2023-11-21T04:07:44;99766.16;;;7.85;100.00
10310;BME280;5200;43.236;27.986;2023-11-21T04:10:11;99717.25;;;7.53;100.00
10310;BME280;5200;43.236;27.986;2023-11-21T04:12:41;99747.19;;;7.72;100.00
10310;BME280;5200;43.236;27.986;2023-11-21T04:15:09;99761.41;;;7.90;100.00
10310;BME280;5200;43.236;27.986;2023-11-21T04:17:39;99766.44;;;8.03;100.00
10310;BME280;5200;43.236;27.986;2023-11-21T04:20:07;99764.38;;;8.07;100.00
10310;BME280;5200;43.236;27.986;2023-11-21T04:22:36;99731.59;;;7.91;100.00
10310;BME280;5200;43.236;27.986;2023-11-21T04:25:08;99738.50;;;7.92;100.00
10310;BME280;5200;43.236;27.986;2023-11-21T04:27:35;99762.22;;;8.12;100.00
10310;BME280;5200;43.236;27.986;2023-11-21T04:30:01;99763.69;;;8.04;100.00
10310;BME280;5200;43.236;27.986;2023-11-21T04:32:29;99743.72;;;7.92;100.00
10310;BME280;5200;43.236;27.986;2023-11-21T04:34:56;99772.88;;;8.20;100.00
10310;BME280;5200;43.236;27.986;2023-11-21T04:37:23;99771.94;;;8.21;100.00
10310;BME280;5200;43.236;27.986;2023-11-21T04:39:50;99772.63;;;8.23;100.00
10310;BME280;5200;43.236;27.986;2023-11-21T04:42:18;99764.53;;;8.26;100.00
10310;BME280;5200;43.236;27.986;2023-11-21T04:44:45;99776.66;;;8.27;100.00
10310;BME280;5200;43.236;27.986;2023-11-21T04:47:12;99778.19;;;8.30;100.00
10310;BME280;5200;43.236;27.986;2023-11-21T04:49:42;99745.28;;;8.16;100.00
10310;BME280;5200;43.236;27.986;2023-11-21T04:52:09;99739.34;;;8.14;100.00
10310;BME280;5200;43.236;27.986;2023-11-21T04:54:36;99736.72;;;8.14;100.00
10310;BME280;5200;43.236;27.986;2023-11-21T04:57:03;99726.50;;;8.11;100.00
10310;BME280;5200;43.236;27.986;2023-11-21T04:59:34;99760.88;;;8.38;100.00
10310;BME280;5200;43.236;27.986;2023-11-21T05:02:01;99732.38;;;8.24;100.00
10310;BME280;5200;43.236;27.986;2023-11-21T05:04:27;99734.28;;;8.22;100.00
10310;BME280;5200;43.236;27.986;2023-11-21T05:06:54;99747.31;;;8.33;100.00
10310;BME280;5200;43.236;27.986;2023-11-21T05:09:22;99772.31;;;8.58;100.00
10310;BME280;5200;43.236;27.986;2023-11-21T05:11:48;99769.84;;;8.57;100.00
10310;BME280;5200;43.236;27.986;2023-11-21T05:14:15;99748.22;;;8.43;100.00
10310;BME280;5200;43.236;27.986;2023-11-21T05:16:45;99781.78;;;8.71;100.00
10310;BME280;5200;43.236;27.986;2023-11-21T05:19:16;99782.91;;;8.78;100.00
10310;BME280;5200;43.236;27.986;2023-11-21T05:21:43;99776.03;;;8.86;100.00
10310;BME280;5200;43.236;27.986;2023-11-21T05:24:09;99778.81;;;8.95;100.00
10310;BME280;5200;43.236;27.986;2023-11-21T05:26:36;99766.13;;;9.00;100.00
10310;BME280;5200;43.236;27.986;2023-11-21T05:29:04;99781.25;;;9.17;100.00
10310;BME280;5200;43.236;27.986;2023-11-21T05:31:31;99779.19;;;9.30;100.00
10310;BME280;5200;43.236;27.986;2023-11-21T05:33:59;99780.59;;;9.44;98.96
10310;BME280;5200;43.236;27.986;2023-11-21T05:36:26;99769.16;;;9.45;97.80
10310;BME280;5200;43.236;27.986;2023-11-21T05:38:52;99793.09;;;9.71;96.75
10310;BME280;5200;43.236;27.986;2023-11-21T05:41:19;99796.41;;;9.83;95.51
10310;BME280;5200;43.236;27.986;2023-11-21T05:43:46;99793.38;;;9.98;94.75
10310;BME280;5200;43.236;27.986;2023-11-21T05:46:13;99786.19;;;10.09;93.88
10310;BME280;5200;43.236;27.986;2023-11-21T05:48:40;99786.97;;;10.20;92.50
10310;BME280;5200;43.236;27.986;2023-11-21T05:51:09;99802.22;;;10.35;91.57
10310;BME280;5200;43.236;27.986;2023-11-21T05:53:37;99810.19;;;10.53;90.61
10310;BME280;5200;43.236;27.986;2023-11-21T05:56:05;99820.94;;;10.70;88.74
10310;BME280;5200;43.236;27.986;2023-11-21T05:58:32;99815.38;;;10.83;87.87
10310;BME280;5200;43.236;27.986;2023-11-21T06:00:58;99813.78;;;10.99;86.85
10310;BME280;5200;43.236;27.986;2023-11-21T06:03:25;99824.66;;;11.14;85.46
10310;BME280;5200;43.236;27.986;2023-11-21T06:05:52;99826.00;;;11.28;83.71
10310;BME280;5200;43.236;27.986;2023-11-21T06:08:20;99830.75;;;11.42;82.35
10310;BME280;5200;43.236;27.986;2023-11-21T06:10:47;99830.81;;;11.60;81.18
10310;BME280;5200;43.236;27.986;2023-11-21T06:13:15;99838.19;;;11.75;80.15
10310;BME280;5200;43.236;27.986;2023-11-21T06:15:46;99840.03;;;11.92;77.60
10310;BME280;5200;43.236;27.986;2023-11-21T06:18:12;99836.38;;;12.03;76.93
10310;BME280;5200;43.236;27.986;2023-11-21T06:20:39;99833.31;;;12.16;75.56
10310;BME280;5200;43.236;27.986;2023-11-21T06:23:06;99835.28;;;12.32;74.70
10310;BME280;5200;43.236;27.986;2023-11-21T06:25:35;99840.31;;;12.43;73.84
10310;BME280;5200;43.236;27.986;2023-11-21T06:28:02;99849.63;;;12.55;72.70
10310;BME280;5200;43.236;27.986;2023-11-21T06:30:29;99839.81;;;12.65;71.93
10310;BME280;5200;43.236;27.986;2023-11-21T06:32:56;99850.09;;;12.77;71.16
10310;BME280;5200;43.236;27.986;2023-11-21T06:35:23;99843.94;;;12.94;69.96
10310;BME280;5200;43.236;27.986;2023-11-21T06:37:50;99831.78;;;13.01;69.24
10310;BME280;5200;43.236;27.986;2023-11-21T06:40:17;99843.75;;;13.22;68.31
10310;BME280;5200;43.236;27.986;2023-11-21T06:42:46;99838.97;;;13.25;67.26
10310;BME280;5200;43.236;27.986;2023-11-21T06:45:13;99833.78;;;13.34;67.28
10310;BME280;5200;43.236;27.986;2023-11-21T06:47:40;99834.31;;;13.45;66.88
10310;BME280;5200;43.236;27.986;2023-11-21T06:50:08;99794.97;;;13.34;65.81
10310;BME280;5200;43.236;27.986;2023-11-21T06:52:35;99806.25;;;13.52;65.15
10310;BME280;5200;43.236;27.986;2023-11-21T06:55:01;99839.69;;;13.78;65.04
10310;BME280;5200;43.236;27.986;2023-11-21T06:57:28;99818.53;;;13.78;64.14
10310;BME280;5200;43.236;27.986;2023-11-21T06:59:57;99788.78;;;13.76;63.51
10310;BME280;5200;43.236;27.986;2023-11-21T07:02:23;99832.91;;;14.08;62.62
10310;BME280;5200;43.236;27.986;2023-11-21T07:04:50;99796.38;;;13.95;62.00
10310;BME280;5200;43.236;27.986;2023-11-21T07:07:18;99804.66;;;14.09;61.78
10310;BME280;5200;43.236;27.986;2023-11-21T07:09:45;99795.38;;;14.13;61.13
10310;BME280;5200;43.236;27.986;2023-11-21T07:12:13;99829.28;;;14.42;61.19
10310;BME280;5200;43.236;27.986;2023-11-21T07:14:40;99824.50;;;14.54;60.87
10310;BME280;5200;43.236;27.986;2023-11-21T07:17:11;99818.88;;;14.57;60.12
10310;BME280;5200;43.236;27.986;2023-11-21T07:19:38;99804.66;;;14.58;59.40
10310;BME280;5200;43.236;27.986;2023-11-21T07:22:07;99810.59;;;14.68;59.53
10310;BME280;5200;43.236;27.986;2023-11-21T07:24:34;99834.72;;;14.73;58.51
10310;BME280;5200;43.236;27.986;2023-11-21T07:27:02;99820.16;;;14.77;58.79
10310;BME280;5200;43.236;27.986;2023-11-21T07:29:30;99782.97;;;14.54;58.39
10310;BME280;5200;43.236;27.986;2023-11-21T07:31:58;99824.09;;;14.90;58.86
10310;BME280;5200;43.236;27.986;2023-11-21T07:34:27;99813.50;;;14.90;57.80
10310;BME280;5200;43.236;27.986;2023-11-21T07:36:54;99800.41;;;14.88;57.95
10310;BME280;5200;43.236;27.986;2023-11-21T07:39:21;99797.56;;;14.98;57.40
10310;BME280;5200;43.236;27.986;2023-11-21T07:41:50;99832.91;;;15.30;56.58
10310;BME280;5200;43.236;27.986;2023-11-21T07:44:17;99816.69;;;15.25;56.17
10310;BME280;5200;43.236;27.986;2023-11-21T07:46:45;99801.84;;;15.07;56.82
10310;BME280;5200;43.236;27.986;2023-11-21T07:49:12;99840.16;;;15.36;56.61
10310;BME280;5200;43.236;27.986;2023-11-21T07:51:43;99833.34;;;15.41;56.72
10310;BME280;5200;43.236;27.986;2023-11-21T07:54:10;99822.59;;;15.35;55.90
10310;BME280;5200;43.236;27.986;2023-11-21T07:56:37;99840.94;;;15.44;56.07
10310;BME280;5200;43.236;27.986;2023-11-21T07:59:04;99837.59;;;15.51;56.17
10310;BME280;5200;43.236;27.986;2023-11-21T08:01:31;99848.00;;;15.60;55.54
10310;BME280;5200;43.236;27.986;2023-11-21T08:03:58;99841.16;;;15.66;54.71
10310;BME280;5200;43.236;27.986;2023-11-21T08:06:28;99842.31;;;15.63;54.69
10310;BME280;5200;43.236;27.986;2023-11-21T08:08:57;99847.97;;;15.69;55.30
10310;BME280;5200;43.236;27.986;2023-11-21T08:11:24;99839.31;;;15.75;55.10
10310;BME280;5200;43.236;27.986;2023-11-21T08:13:51;99836.97;;;15.80;54.69
10310;BME280;5200;43.236;27.986;2023-11-21T08:16:18;99819.41;;;15.79;55.60
10310;BME280;5200;43.236;27.986;2023-11-21T08:18:45;99839.09;;;16.08;55.34
10310;BME280;5200;43.236;27.986;2023-11-21T08:21:12;99821.47;;;16.15;54.56
10310;BME280;5200;43.236;27.986;2023-11-21T08:23:39;99805.63;;;16.06;54.19
10310;BME280;5200;43.236;27.986;2023-11-21T08:26:07;99837.53;;;16.36;54.11
10310;BME280;5200;43.236;27.986;2023-11-21T08:28:35;99836.34;;;16.39;53.40
10310;BME280;5200;43.236;27.986;2023-11-21T08:31:02;99803.44;;;16.25;53.67
10310;BME280;5200;43.236;27.986;2023-11-21T08:33:29;99849.63;;;16.39;53.26
10310;BME280;5200;43.236;27.986;2023-11-21T08:35:56;99835.31;;;16.25;53.84
10310;BME280;5200;43.236;27.986;2023-11-21T08:38:23;99806.44;;;15.84;54.32
10310;BME280;5200;43.236;27.986;2023-11-21T08:40:50;99840.09;;;15.83;54.96
10310;BME280;5200;43.236;27.986;2023-11-21T08:43:18;99828.25;;;15.71;55.96
10310;BME280;5200;43.236;27.986;2023-11-21T08:45:46;99829.13;;;15.55;56.71
10310;BME280;5200;43.236;27.986;2023-11-21T08:48:13;99822.94;;;15.32;58.09
10310;BME280;5200;43.236;27.986;2023-11-21T08:50:39;99816.19;;;15.21;57.84
10310;BME280;5200;43.236;27.986;2023-11-21T08:53:06;99827.16;;;15.18;58.44
10310;BME280;5200;43.236;27.986;2023-11-21T08:55:33;99785.06;;;14.75;59.74
10310;BME280;5200;43.236;27.986;2023-11-21T08:58:02;99813.44;;;15.06;60.75
10310;BME280;5200;43.236;27.986;2023-11-21T09:00:32;99825.38;;;15.10;59.32
10310;BME280;5200;43.236;27.986;2023-11-21T09:03:01;99821.22;;;15.08;59.76
10310;BME280;5200;43.236;27.986;2023-11-21T09:05:28;99813.75;;;15.11;59.95
10310;BME280;5200;43.236;27.986;2023-11-21T09:07:55;99827.09;;;15.26;59.56
10310;BME280;5200;43.236;27.986;2023-11-21T09:10:22;99821.63;;;15.36;58.48
10310;BME280;5200;43.236;27.986;2023-11-21T09:12:51;99811.78;;;15.44;57.56
10310;BME280;5200;43.236;27.986;2023-11-21T09:15:18;99813.09;;;15.49;57.53
10310;BME280;5200;43.236;27.986;2023-11-21T09:17:47;99798.28;;;15.54;56.72
10310;BME280;5200;43.236;27.986;2023-11-21T09:20:14;99760.69;;;15.28;56.01
10310;BME280;5200;43.236;27.986;2023-11-21T09:22:41;99805.44;;;15.54;56.18
10310;BME280;5200;43.236;27.986;2023-11-21T09:25:10;99768.09;;;15.32;56.32
10310;BME280;5200;43.236;27.986;2023-11-21T09:27:38;99778.09;;;15.53;56.36
10310;BME280;5200;43.236;27.986;2023-11-21T09:30:06;99774.00;;;15.42;55.65
10310;BME280;5200;43.236;27.986;2023-11-21T09:32:35;99782.91;;;15.50;55.59
10310;BME280;5200;43.236;27.986;2023-11-21T09:35:05;99787.06;;;15.52;55.97
10310;BME280;5200;43.236;27.986;2023-11-21T09:37:33;99783.13;;;15.40;56.43
10310;BME280;5200;43.236;27.986;2023-11-21T09:40:01;99787.06;;;15.52;56.29
10310;BME280;5200;43.236;27.986;2023-11-21T09:42:31;99789.19;;;15.57;56.31
10310;BME280;5200;43.236;27.986;2023-11-21T09:45:05;99789.53;;;15.54;55.71
10310;BME280;5200;43.236;27.986;2023-11-21T09:47:38;99756.31;;;15.43;55.09
10310;BME280;5200;43.236;27.986;2023-11-21T09:50:07;99751.69;;;15.37;54.74
10310;BME280;5200;43.236;27.986;2023-11-21T09:52:45;99757.47;;;15.40;54.71
10310;BME280;5200;43.236;27.986;2023-11-21T09:55:17;99764.91;;;15.45;54.90
10310;BME280;5200;43.236;27.986;2023-11-21T09:57:47;99781.56;;;15.54;55.29
10310;BME280;5200;43.236;27.986;2023-11-21T10:00:15;99768.56;;;15.67;55.06
10310;BME280;5200;43.236;27.986;2023-11-21T10:02:43;99753.47;;;15.76;55.07
10310;BME280;5200;43.236;27.986;2023-11-21T10:05:13;99765.03;;;15.98;54.30
10310;BME280;5200;43.236;27.986;2023-11-21T10:07:42;99759.50;;;16.08;54.13
10310;BME280;5200;43.236;27.986;2023-11-21T10:10:10;99769.03;;;16.17;52.76
10310;BME280;5200;43.236;27.986;2023-11-21T10:12:38;99757.19;;;16.04;52.34
10310;BME280;5200;43.236;27.986;2023-11-21T10:15:08;99736.69;;;15.75;52.71
10310;BME280;5200;43.236;27.986;2023-11-21T10:17:38;99751.59;;;15.53;53.15
10310;BME280;5200;43.236;27.986;2023-11-21T10:20:11;99764.63;;;15.32;54.61
10310;BME280;5200;43.236;27.986;2023-11-21T10:22:40;99747.38;;;15.05;56.19
10310;BME280;5200;43.236;27.986;2023-11-21T10:25:08;99743.09;;;14.95;56.68
10310;BME280;5200;43.236;27.986;2023-11-21T10:27:35;99764.78;;;14.99;56.92
10310;BME280;5200;43.236;27.986;2023-11-21T10:30:02;99755.72;;;14.93;57.27
10310;BME280;5200;43.236;27.986;2023-11-21T10:32:29;99720.25;;;14.63;57.52
10310;BME280;5200;43.236;27.986;2023-11-21T10:34:58;99727.50;;;14.69;57.60
10310;BME280;5200;43.236;27.986;2023-11-21T10:37:28;99754.47;;;14.73;57.73
10310;BME280;5200;43.236;27.986;2023-11-21T10:39:58;99747.69;;;14.62;58.08
10310;BME280;5200;43.236;27.986;2023-11-21T10:42:25;99753.81;;;14.71;58.84
10310;BME280;5200;43.236;27.986;2023-11-21T10:44:52;99760.22;;;14.85;58.97
10310;BME280;5200;43.236;27.986;2023-11-21T10:47:19;99755.69;;;15.01;59.07
10310;BME280;5200;43.236;27.986;2023-11-21T10:49:48;99742.34;;;15.18;57.91
10310;BME280;5200;43.236;27.986;2023-11-21T10:52:18;99737.75;;;15.43;57.15
10310;BME280;5200;43.236;27.986;2023-11-21T10:54:46;99718.47;;;15.49;56.88
10310;BME280;5200;43.236;27.986;2023-11-21T10:57:17;99749.38;;;15.88;55.33
10310;BME280;5200;43.236;27.986;2023-11-21T10:59:47;99738.50;;;15.98;53.11
10310;BME280;5200;43.236;27.986;2023-11-21T11:02:21;99718.75;;;16.00;53.16
10310;BME280;5200;43.236;27.986;2023-11-21T11:04:52;99730.41;;;16.29;52.67
10310;BME280;5200;43.236;27.986;2023-11-21T11:07:21;99728.50;;;16.38;52.59
10310;BME280;5200;43.236;27.986;2023-11-21T11:09:48;99712.66;;;16.30;51.95
10310;BME280;5200;43.236;27.986;2023-11-21T11:12:17;99730.63;;;16.42;51.86
10310;BME280;5200;43.236;27.986;2023-11-21T11:14:44;99702.84;;;16.15;51.91
10310;BME280;5200;43.236;27.986;2023-11-21T11:17:13;99716.97;;;16.31;51.98
10310;BME280;5200;43.236;27.986;2023-11-21T11:19:40;99714.97;;;16.33;52.07
10310;BME280;5200;43.236;27.986;2023-11-21T11:22:15;99683.81;;;16.12;51.63
10310;BME280;5200;43.236;27.986;2023-11-21T11:27:51;99708.53;;;16.27;51.35
10310;BME280;5200;43.236;27.986;2023-11-21T11:30:30;99710.75;;;16.23;51.26
10310;BME280;5200;43.236;27.986;2023-11-21T11:33:09;99706.78;;;16.19;50.75
10310;BME280;5200;43.236;27.986;2023-11-21T11:35:46;99702.56;;;16.25;50.86
10310;BME280;5200;43.236;27.986;2023-11-21T11:38:19;99697.28;;;16.25;50.71
10310;BME280;5200;43.236;27.986;2023-11-21T11:40:52;99692.25;;;16.30;50.78
10310;BME280;5200;43.236;27.986;2023-11-21T11:43:26;99700.50;;;16.35;50.79
10310;BME280;5200;43.236;27.986;2023-11-21T11:45:55;99693.91;;;16.31;50.32
10310;BME280;5200;43.236;27.986;2023-11-21T11:48:24;99698.75;;;16.27;50.34
10310;BME280;5200;43.236;27.986;2023-11-21T11:51:04;99692.06;;;16.17;49.74
10310;BME280;5200;43.236;27.986;2023-11-21T11:53:39;99708.63;;;16.19;50.03
10310;BME280;5200;43.236;27.986;2023-11-21T11:56:23;99706.53;;;16.14;49.71
10310;BME280;5200;43.236;27.986;2023-11-21T11:58:53;99702.78;;;16.09;51.13
10310;BME280;5200;43.236;27.986;2023-11-21T12:01:21;99691.06;;;15.80;54.66
10310;BME280;5200;43.236;27.986;2023-11-21T12:07:01;99694.19;;;15.37;58.25
10310;BME280;5200;43.236;27.986;2023-11-21T12:09:30;99673.38;;;15.03;60.00
10310;BME280;5200;43.236;27.986;2023-11-21T12:11:58;99696.72;;;15.08;61.79
10310;BME280;5200;43.236;27.986;2023-11-21T12:14:27;99694.59;;;14.95;63.12
10310;BME280;5200;43.236;27.986;2023-11-21T12:16:54;99708.50;;;14.97;63.67
10310;BME280;5200;43.236;27.986;2023-11-21T12:19:21;99715.06;;;14.78;64.27
10310;BME280;5200;43.236;27.986;2023-11-21T12:21:49;99701.72;;;14.63;64.91
10310;BME280;5200;43.236;27.986;2023-11-21T12:24:16;99714.25;;;14.69;65.25
10310;BME280;5200;43.236;27.986;2023-11-21T12:26:43;99715.63;;;14.65;64.93
10310;BME280;5200;43.236;27.986;2023-11-21T12:29:11;99711.16;;;14.57;64.88
10310;BME280;5200;43.236;27.986;2023-11-21T12:31:39;99711.97;;;14.50;64.97
10310;BME280;5200;43.236;27.986;2023-11-21T12:34:07;99705.09;;;14.32;65.10
10310;BME280;5200;43.236;27.986;2023-11-21T12:36:37;99707.41;;;14.19;65.69
10310;BME280;5200;43.236;27.986;2023-11-21T12:39:04;99692.88;;;13.99;66.27
10310;BME280;5200;43.236;27.986;2023-11-21T12:41:34;99699.53;;;13.86;66.15
10310;BME280;5200;43.236;27.986;2023-11-21T12:44:01;99697.88;;;13.69;66.62
10310;BME280;5200;43.236;27.986;2023-11-21T12:46:28;99699.19;;;13.57;66.91
10310;BME280;5200;43.236;27.986;2023-11-21T12:49:00;99657.16;;;13.21;67.80
10310;BME280;5200;43.236;27.986;2023-11-21T12:51:27;99707.44;;;13.37;68.13
10310;BME280;5200;43.236;27.986;2023-11-21T12:53:55;99686.56;;;13.26;68.99
10310;BME280;5200;43.236;27.986;2023-11-21T12:56:22;99669.53;;;13.04;69.71
10310;BME280;5200;43.236;27.986;2023-11-21T12:58:49;99708.25;;;13.29;70.32
10310;BME280;5200;43.236;27.986;2023-11-21T13:01:17;99705.44;;;13.31;70.02
10310;BME280;5200;43.236;27.986;2023-11-21T13:03:47;99685.56;;;13.19;69.72
10310;BME280;5200;43.236;27.986;2023-11-21T13:06:19;99666.06;;;13.11;70.17
10310;BME280;5200;43.236;27.986;2023-11-21T13:08:50;99678.97;;;13.15;70.31
10310;BME280;5200;43.236;27.986;2023-11-21T13:11:17;99705.44;;;13.39;70.92